This is the latest recevied weather packets stored in our database for station/object W4TJP. If no packets are shown the sender has not sent any weather packets the latest 1 day(s).
| Time | Temp. | Humidity | Pressure | Rain* | Wind** | Luminosity | Snow |
|---|---|---|---|---|---|---|---|
| 1777999791 | 21.11° C | 59% | 1013.9 hPa | 0 mm | 0.45 m/s, 128° | 318 W/m² | - |
| 1777999488 | 21.11° C | 60% | 1014.1 hPa | 0 mm | 0 m/s | 279 W/m² | - |
| 1777999186 | 21.11° C | 59% | 1013.9 hPa | 0 mm | 0.45 m/s, 228° | 410 W/m² | - |
| 1777998885 | 21.11° C | 60% | 1014.2 hPa | 0 mm | 0.45 m/s, 150° | 351 W/m² | - |
| 1777998584 | 21.67° C | 60% | 1014.1 hPa | 0 mm | 0.89 m/s, 180° | 387 W/m² | - |
| 1777998279 | 20.56° C | 61% | 1014.3 hPa | 0 mm | 0.45 m/s, 180° | 582 W/m² | - |
| 1777997976 | 20.56° C | 63% | 1014.3 hPa | 0 mm | 0.89 m/s, 179° | 581 W/m² | - |
| 1777997672 | 20° C | 64% | 1014 hPa | 0 mm | 0.45 m/s, 147° | 413 W/m² | - |
| 1777997370 | 20° C | 63% | 1014.1 hPa | 0 mm | 0.89 m/s, 122° | 252 W/m² | - |
| 1777997068 | 20° C | 65% | 1014.3 hPa | 0 mm | 0.45 m/s, 176° | 299 W/m² | - |
| 1777996764 | 20° C | 65% | 1014.1 hPa | 0 mm | 0.45 m/s, 157° | 250 W/m² | - |
| 1777996461 | 20° C | 62% | 1014 hPa | 0 mm | 0.89 m/s, 131° | 233 W/m² | - |
| 1777996158 | 20° C | 67% | 1014 hPa | 0 mm | 0 m/s | 274 W/m² | - |
| 1777995854 | 19.44° C | 65% | 1013.9 hPa | 0 mm | 0 m/s | 252 W/m² | - |
| 1777995550 | 19.44° C | 65% | 1014.2 hPa | 0 mm | 0.45 m/s, 131° | 205 W/m² | - |
| 1777995248 | 19.44° C | 65% | 1014.2 hPa | 0 mm | 0.45 m/s, 163° | 209 W/m² | - |
| 1777994944 | 19.44° C | 66% | 1013.9 hPa | 0 mm | 0 m/s | 217 W/m² | - |
| 1777994641 | 19.44° C | 66% | 1014.3 hPa | 0 mm | 0.45 m/s, 114° | 204 W/m² | - |
| 1777994341 | 18.89° C | 67% | 1014.1 hPa | 0 mm | 0.45 m/s, 137° | 194 W/m² | - |
| 1777994038 | 18.89° C | 65% | 1014.1 hPa | 0 mm | 0.45 m/s, 34° | 173 W/m² | - |
| 1777993735 | 19.44° C | 65% | 1014.1 hPa | 0 mm | 0.89 m/s, 98° | 182 W/m² | - |
| 1777993433 | 19.44° C | 64% | 1014 hPa | 0 mm | 0 m/s | 229 W/m² | - |
| 1777993132 | 19.44° C | 65% | 1013.9 hPa | 0 mm | 0.45 m/s, 161° | 318 W/m² | - |
| 1777992831 | 19.44° C | 65% | 1013.8 hPa | 0 mm | 0.45 m/s, 133° | 314 W/m² | - |
| 1777992528 | 19.44° C | 65% | 1013.4 hPa | 0 mm | 0 m/s | 275 W/m² | - |
* Rain latest hour (hover to see other rain measurements)
** Current wind speed in m/s (hover to see current wind gust speed)